sensor_id;sensor_type;location;lat;lon;timestamp;P1;durP1;ratioP1;P2;durP2;ratioP2
20846;SDS011;10584;50.854;12.902;2023-02-02T00:01:18;10.23;;;2.07;;
20846;SDS011;10584;50.854;12.902;2023-02-02T00:06:40;9.87;;;2.00;;
20846;SDS011;10584;50.854;12.902;2023-02-02T00:12:02;5.70;;;1.97;;
20846;SDS011;10584;50.854;12.902;2023-02-02T00:17:24;8.63;;;2.07;;
20846;SDS011;10584;50.854;12.902;2023-02-02T00:22:45;7.57;;;2.43;;
20846;SDS011;10584;50.854;12.902;2023-02-02T00:28:07;6.27;;;2.03;;
20846;SDS011;10584;50.854;12.902;2023-02-02T00:33:28;5.93;;;1.77;;
20846;SDS011;10584;50.854;12.902;2023-02-02T00:38:50;10.43;;;3.47;;
20846;SDS011;10584;50.854;12.902;2023-02-02T00:44:12;10.90;;;3.17;;
20846;SDS011;10584;50.854;12.902;2023-02-02T00:49:53;7.37;;;2.27;;
20846;SDS011;10584;50.854;12.902;2023-02-02T00:55:14;13.90;;;2.87;;
20846;SDS011;10584;50.854;12.902;2023-02-02T01:00:38;10.17;;;2.20;;
20846;SDS011;10584;50.854;12.902;2023-02-02T01:06:00;6.23;;;2.07;;
20846;SDS011;10584;50.854;12.902;2023-02-02T01:11:22;7.43;;;2.00;;
20846;SDS011;10584;50.854;12.902;2023-02-02T01:16:45;10.00;;;2.20;;
20846;SDS011;10584;50.854;12.902;2023-02-02T01:22:07;9.63;;;2.17;;
20846;SDS011;10584;50.854;12.902;2023-02-02T01:27:29;6.70;;;1.73;;
20846;SDS011;10584;50.854;12.902;2023-02-02T01:32:51;5.77;;;1.70;;
20846;SDS011;10584;50.854;12.902;2023-02-02T01:38:13;10.87;;;2.20;;
20846;SDS011;10584;50.854;12.902;2023-02-02T01:49:12;11.57;;;2.20;;
20846;SDS011;10584;50.854;12.902;2023-02-02T01:54:40;9.60;;;1.73;;
20846;SDS011;10584;50.854;12.902;2023-02-02T02:00:06;7.23;;;1.93;;
20846;SDS011;10584;50.854;12.902;2023-02-02T02:05:34;7.63;;;1.73;;
20846;SDS011;10584;50.854;12.902;2023-02-02T02:11:00;5.60;;;1.20;;
20846;SDS011;10584;50.854;12.902;2023-02-02T02:22:22;8.00;;;1.90;;
20846;SDS011;10584;50.854;12.902;2023-02-02T02:34:02;11.50;;;2.27;;
20846;SDS011;10584;50.854;12.902;2023-02-02T02:39:47;5.30;;;1.80;;
20846;SDS011;10584;50.854;12.902;2023-02-02T02:45:15;7.90;;;1.37;;
20846;SDS011;10584;50.854;12.902;2023-02-02T02:50:37;6.60;;;1.30;;
20846;SDS011;10584;50.854;12.902;2023-02-02T02:56:03;5.77;;;1.57;;
20846;SDS011;10584;50.854;12.902;2023-02-02T03:01:38;7.17;;;1.50;;
20846;SDS011;10584;50.854;12.902;2023-02-02T03:07:25;16.67;;;2.07;;
20846;SDS011;10584;50.854;12.902;2023-02-02T03:13:00;5.23;;;1.67;;
20846;SDS011;10584;50.854;12.902;2023-02-02T03:18:30;14.67;;;2.10;;
20846;SDS011;10584;50.854;12.902;2023-02-02T03:23:52;7.73;;;1.33;;
20846;SDS011;10584;50.854;12.902;2023-02-02T03:29:14;5.10;;;1.30;;
20846;SDS011;10584;50.854;12.902;2023-02-02T03:34:37;9.00;;;1.57;;
20846;SDS011;10584;50.854;12.902;2023-02-02T03:39:58;12.13;;;1.60;;
20846;SDS011;10584;50.854;12.902;2023-02-02T03:45:21;15.93;;;1.93;;
20846;SDS011;10584;50.854;12.902;2023-02-02T03:50:43;6.43;;;1.33;;
20846;SDS011;10584;50.854;12.902;2023-02-02T03:56:04;10.47;;;1.70;;
20846;SDS011;10584;50.854;12.902;2023-02-02T04:01:27;7.40;;;1.20;;
20846;SDS011;10584;50.854;12.902;2023-02-02T04:06:49;15.27;;;1.90;;
20846;SDS011;10584;50.854;12.902;2023-02-02T04:12:11;7.97;;;1.53;;
20846;SDS011;10584;50.854;12.902;2023-02-02T04:17:32;11.13;;;1.53;;
20846;SDS011;10584;50.854;12.902;2023-02-02T04:22:54;14.20;;;1.20;;
20846;SDS011;10584;50.854;12.902;2023-02-02T04:28:16;14.83;;;2.03;;
20846;SDS011;10584;50.854;12.902;2023-02-02T04:33:37;6.07;;;1.47;;
20846;SDS011;10584;50.854;12.902;2023-02-02T04:38:59;11.30;;;1.37;;
20846;SDS011;10584;50.854;12.902;2023-02-02T04:44:20;9.63;;;1.33;;
20846;SDS011;10584;50.854;12.902;2023-02-02T04:49:42;7.87;;;1.53;;
20846;SDS011;10584;50.854;12.902;2023-02-02T04:55:04;9.13;;;1.87;;
20846;SDS011;10584;50.854;12.902;2023-02-02T05:00:27;9.23;;;1.93;;
20846;SDS011;10584;50.854;12.902;2023-02-02T05:05:49;16.37;;;2.60;;
20846;SDS011;10584;50.854;12.902;2023-02-02T05:11:11;17.37;;;2.80;;
20846;SDS011;10584;50.854;12.902;2023-02-02T05:16:35;8.47;;;1.33;;
20846;SDS011;10584;50.854;12.902;2023-02-02T05:21:58;13.97;;;1.93;;
20846;SDS011;10584;50.854;12.902;2023-02-02T05:27:20;14.93;;;1.67;;
20846;SDS011;10584;50.854;12.902;2023-02-02T05:32:41;4.00;;;1.60;;
20846;SDS011;10584;50.854;12.902;2023-02-02T05:38:03;9.33;;;1.57;;
20846;SDS011;10584;50.854;12.902;2023-02-02T05:43:25;8.27;;;2.03;;
20846;SDS011;10584;50.854;12.902;2023-02-02T05:48:47;8.13;;;1.50;;
20846;SDS011;10584;50.854;12.902;2023-02-02T05:54:09;12.67;;;3.37;;
20846;SDS011;10584;50.854;12.902;2023-02-02T05:59:31;8.73;;;2.30;;
20846;SDS011;10584;50.854;12.902;2023-02-02T06:04:53;14.70;;;3.10;;
20846;SDS011;10584;50.854;12.902;2023-02-02T06:10:14;8.97;;;1.63;;
20846;SDS011;10584;50.854;12.902;2023-02-02T06:15:36;12.27;;;1.87;;
20846;SDS011;10584;50.854;12.902;2023-02-02T06:20:58;18.27;;;1.90;;
20846;SDS011;10584;50.854;12.902;2023-02-02T06:26:20;10.63;;;1.47;;
20846;SDS011;10584;50.854;12.902;2023-02-02T06:31:42;9.50;;;1.70;;
20846;SDS011;10584;50.854;12.902;2023-02-02T06:37:03;12.90;;;1.53;;
20846;SDS011;10584;50.854;12.902;2023-02-02T06:42:25;16.40;;;1.60;;
20846;SDS011;10584;50.854;12.902;2023-02-02T06:47:46;11.47;;;1.97;;
20846;SDS011;10584;50.854;12.902;2023-02-02T06:53:08;11.23;;;2.40;;
20846;SDS011;10584;50.854;12.902;2023-02-02T06:58:30;11.13;;;1.80;;
20846;SDS011;10584;50.854;12.902;2023-02-02T07:03:52;15.77;;;2.43;;
20846;SDS011;10584;50.854;12.902;2023-02-02T07:09:14;15.77;;;1.97;;
20846;SDS011;10584;50.854;12.902;2023-02-02T07:14:35;14.97;;;2.10;;
20846;SDS011;10584;50.854;12.902;2023-02-02T07:19:57;12.93;;;2.60;;
20846;SDS011;10584;50.854;12.902;2023-02-02T07:25:18;9.10;;;2.03;;
20846;SDS011;10584;50.854;12.902;2023-02-02T07:30:40;12.33;;;1.50;;
20846;SDS011;10584;50.854;12.902;2023-02-02T07:36:02;12.20;;;1.30;;
20846;SDS011;10584;50.854;12.902;2023-02-02T07:41:23;5.77;;;1.53;;
20846;SDS011;10584;50.854;12.902;2023-02-02T07:46:45;17.83;;;1.63;;
20846;SDS011;10584;50.854;12.902;2023-02-02T07:52:07;13.30;;;1.67;;
20846;SDS011;10584;50.854;12.902;2023-02-02T07:57:29;7.90;;;1.40;;
20846;SDS011;10584;50.854;12.902;2023-02-02T08:02:50;6.00;;;1.60;;
20846;SDS011;10584;50.854;12.902;2023-02-02T08:08:12;9.73;;;1.30;;
20846;SDS011;10584;50.854;12.902;2023-02-02T08:13:34;10.77;;;1.83;;
20846;SDS011;10584;50.854;12.902;2023-02-02T08:18:57;11.33;;;2.37;;
20846;SDS011;10584;50.854;12.902;2023-02-02T08:24:18;7.27;;;1.07;;
20846;SDS011;10584;50.854;12.902;2023-02-02T08:29:40;9.17;;;1.63;;
20846;SDS011;10584;50.854;12.902;2023-02-02T08:35:02;9.73;;;1.80;;
20846;SDS011;10584;50.854;12.902;2023-02-02T08:40:24;6.60;;;1.50;;
20846;SDS011;10584;50.854;12.902;2023-02-02T08:45:46;12.10;;;1.73;;
20846;SDS011;10584;50.854;12.902;2023-02-02T08:51:23;11.17;;;2.20;;
20846;SDS011;10584;50.854;12.902;2023-02-02T08:56:45;13.07;;;1.90;;
20846;SDS011;10584;50.854;12.902;2023-02-02T09:02:08;9.93;;;1.93;;
20846;SDS011;10584;50.854;12.902;2023-02-02T09:07:33;15.07;;;1.70;;
20846;SDS011;10584;50.854;12.902;2023-02-02T09:12:54;9.97;;;1.77;;
20846;SDS011;10584;50.854;12.902;2023-02-02T09:18:16;5.97;;;1.63;;
20846;SDS011;10584;50.854;12.902;2023-02-02T09:23:38;11.90;;;1.90;;
20846;SDS011;10584;50.854;12.902;2023-02-02T09:29:02;7.53;;;1.80;;
20846;SDS011;10584;50.854;12.902;2023-02-02T09:34:24;8.23;;;1.37;;
20846;SDS011;10584;50.854;12.902;2023-02-02T09:39:46;11.87;;;2.13;;
20846;SDS011;10584;50.854;12.902;2023-02-02T09:51:00;12.63;;;2.33;;
20846;SDS011;10584;50.854;12.902;2023-02-02T09:56:28;13.77;;;1.90;;
20846;SDS011;10584;50.854;12.902;2023-02-02T10:01:56;8.03;;;1.80;;
20846;SDS011;10584;50.854;12.902;2023-02-02T10:07:26;11.30;;;1.20;;
20846;SDS011;10584;50.854;12.902;2023-02-02T10:13:18;11.40;;;1.67;;
20846;SDS011;10584;50.854;12.902;2023-02-02T10:24:22;16.13;;;1.60;;
20846;SDS011;10584;50.854;12.902;2023-02-02T10:35:33;11.50;;;2.00;;
20846;SDS011;10584;50.854;12.902;2023-02-02T10:41:16;12.50;;;2.07;;
20846;SDS011;10584;50.854;12.902;2023-02-02T10:47:13;9.40;;;1.73;;
20846;SDS011;10584;50.854;12.902;2023-02-02T10:52:46;15.27;;;1.97;;
20846;SDS011;10584;50.854;12.902;2023-02-02T11:03:47;15.23;;;1.80;;
20846;SDS011;10584;50.854;12.902;2023-02-02T11:09:34;6.83;;;1.67;;
20846;SDS011;10584;50.854;12.902;2023-02-02T11:15:21;15.80;;;1.70;;
20846;SDS011;10584;50.854;12.902;2023-02-02T11:20:48;6.60;;;1.20;;
20846;SDS011;10584;50.854;12.902;2023-02-02T11:26:10;11.57;;;1.87;;
20846;SDS011;10584;50.854;12.902;2023-02-02T11:31:32;8.73;;;1.50;;
20846;SDS011;10584;50.854;12.902;2023-02-02T11:42:21;6.43;;;1.40;;
20846;SDS011;10584;50.854;12.902;2023-02-02T11:47:44;11.63;;;1.43;;
20846;SDS011;10584;50.854;12.902;2023-02-02T11:53:10;4.73;;;1.60;;
20846;SDS011;10584;50.854;12.902;2023-02-02T11:59:00;5.43;;;1.37;;
20846;SDS011;10584;50.854;12.902;2023-02-02T12:04:23;7.50;;;1.90;;
20846;SDS011;10584;50.854;12.902;2023-02-02T12:09:45;10.47;;;1.40;;
20846;SDS011;10584;50.854;12.902;2023-02-02T12:15:11;10.63;;;1.67;;
20846;SDS011;10584;50.854;12.902;2023-02-02T12:20:56;9.60;;;1.70;;
20846;SDS011;10584;50.854;12.902;2023-02-02T12:26:30;11.20;;;1.73;;
20846;SDS011;10584;50.854;12.902;2023-02-02T12:54:45;10.50;;;1.67;;
20846;SDS011;10584;50.854;12.902;2023-02-02T13:06:23;10.23;;;1.90;;
20846;SDS011;10584;50.854;12.902;2023-02-02T13:11:52;7.37;;;1.57;;
20846;SDS011;10584;50.854;12.902;2023-02-02T13:17:29;5.40;;;1.23;;
20846;SDS011;10584;50.854;12.902;2023-02-02T13:23:04;6.20;;;1.17;;
20846;SDS011;10584;50.854;12.902;2023-02-02T13:34:25;8.47;;;1.37;;
20846;SDS011;10584;50.854;12.902;2023-02-02T13:40:15;7.07;;;1.60;;
20846;SDS011;10584;50.854;12.902;2023-02-02T13:51:37;6.10;;;1.53;;
20846;SDS011;10584;50.854;12.902;2023-02-02T14:09:14;5.80;;;1.23;;
20846;SDS011;10584;50.854;12.902;2023-02-02T14:14:37;8.40;;;1.30;;
20846;SDS011;10584;50.854;12.902;2023-02-02T14:20:11;6.07;;;1.40;;
20846;SDS011;10584;50.854;12.902;2023-02-02T14:26:07;6.83;;;1.60;;
20846;SDS011;10584;50.854;12.902;2023-02-02T14:31:50;11.27;;;2.30;;
20846;SDS011;10584;50.854;12.902;2023-02-02T14:48:33;9.53;;;2.40;;
20846;SDS011;10584;50.854;12.902;2023-02-02T14:54:01;5.00;;;1.67;;
20846;SDS011;10584;50.854;12.902;2023-02-02T14:59:29;7.13;;;1.30;;
20846;SDS011;10584;50.854;12.902;2023-02-02T15:16:24;3.30;;;1.70;;
20846;SDS011;10584;50.854;12.902;2023-02-02T15:21:49;14.20;;;1.87;;
20846;SDS011;10584;50.854;12.902;2023-02-02T15:27:17;6.53;;;1.73;;
20846;SDS011;10584;50.854;12.902;2023-02-02T15:32:42;9.63;;;3.00;;
20846;SDS011;10584;50.854;12.902;2023-02-02T15:38:05;10.67;;;3.13;;
20846;SDS011;10584;50.854;12.902;2023-02-02T15:43:33;6.40;;;2.50;;
20846;SDS011;10584;50.854;12.902;2023-02-02T15:54:54;12.77;;;2.87;;
20846;SDS011;10584;50.854;12.902;2023-02-02T16:00:30;12.93;;;3.73;;
20846;SDS011;10584;50.854;12.902;2023-02-02T16:05:54;12.50;;;3.23;;
20846;SDS011;10584;50.854;12.902;2023-02-02T16:11:20;11.10;;;3.57;;
20846;SDS011;10584;50.854;12.902;2023-02-02T16:16:43;11.07;;;3.70;;
20846;SDS011;10584;50.854;12.902;2023-02-02T16:22:08;9.87;;;3.77;;
20846;SDS011;10584;50.854;12.902;2023-02-02T16:27:35;10.90;;;3.37;;
20846;SDS011;10584;50.854;12.902;2023-02-02T16:32:57;11.00;;;3.33;;
20846;SDS011;10584;50.854;12.902;2023-02-02T16:38:38;9.83;;;3.50;;
20846;SDS011;10584;50.854;12.902;2023-02-02T16:49:47;14.90;;;6.13;;
20846;SDS011;10584;50.854;12.902;2023-02-02T16:55:09;13.93;;;4.40;;
20846;SDS011;10584;50.854;12.902;2023-02-02T17:00:30;9.73;;;2.73;;
20846;SDS011;10584;50.854;12.902;2023-02-02T17:05:52;12.67;;;2.47;;
20846;SDS011;10584;50.854;12.902;2023-02-02T17:11:26;9.00;;;2.70;;
20846;SDS011;10584;50.854;12.902;2023-02-02T17:16:50;9.23;;;3.00;;
20846;SDS011;10584;50.854;12.902;2023-02-02T17:22:11;22.37;;;7.23;;
20846;SDS011;10584;50.854;12.902;2023-02-02T17:27:34;19.20;;;4.53;;
20846;SDS011;10584;50.854;12.902;2023-02-02T17:32:56;7.60;;;3.20;;
20846;SDS011;10584;50.854;12.902;2023-02-02T17:38:21;14.07;;;2.93;;
20846;SDS011;10584;50.854;12.902;2023-02-02T17:43:43;8.50;;;3.10;;
20846;SDS011;10584;50.854;12.902;2023-02-02T17:49:04;14.53;;;2.83;;
20846;SDS011;10584;50.854;12.902;2023-02-02T17:54:26;12.03;;;2.93;;
20846;SDS011;10584;50.854;12.902;2023-02-02T17:59:47;19.37;;;5.60;;
20846;SDS011;10584;50.854;12.902;2023-02-02T18:05:09;16.20;;;4.87;;
20846;SDS011;10584;50.854;12.902;2023-02-02T18:10:32;12.53;;;4.20;;
20846;SDS011;10584;50.854;12.902;2023-02-02T18:15:55;27.30;;;8.53;;
20846;SDS011;10584;50.854;12.902;2023-02-02T18:21:19;29.20;;;8.20;;
20846;SDS011;10584;50.854;12.902;2023-02-02T18:26:40;16.37;;;4.47;;
20846;SDS011;10584;50.854;12.902;2023-02-02T18:32:02;17.00;;;5.17;;
20846;SDS011;10584;50.854;12.902;2023-02-02T18:37:24;17.67;;;4.90;;
20846;SDS011;10584;50.854;12.902;2023-02-02T18:42:45;9.87;;;3.10;;
20846;SDS011;10584;50.854;12.902;2023-02-02T18:48:08;11.90;;;3.87;;
20846;SDS011;10584;50.854;12.902;2023-02-02T18:53:29;11.57;;;3.70;;
20846;SDS011;10584;50.854;12.902;2023-02-02T18:58:51;16.73;;;4.30;;
20846;SDS011;10584;50.854;12.902;2023-02-02T19:04:12;12.90;;;3.97;;
20846;SDS011;10584;50.854;12.902;2023-02-02T19:09:34;12.53;;;4.60;;
20846;SDS011;10584;50.854;12.902;2023-02-02T19:14:56;12.93;;;3.33;;
20846;SDS011;10584;50.854;12.902;2023-02-02T19:20:20;17.47;;;4.50;;
20846;SDS011;10584;50.854;12.902;2023-02-02T19:25:45;11.87;;;4.20;;
20846;SDS011;10584;50.854;12.902;2023-02-02T19:31:11;12.17;;;3.30;;
20846;SDS011;10584;50.854;12.902;2023-02-02T19:36:34;10.43;;;3.60;;
20846;SDS011;10584;50.854;12.902;2023-02-02T19:41:57;17.77;;;5.43;;
20846;SDS011;10584;50.854;12.902;2023-02-02T19:47:27;9.40;;;3.77;;
20846;SDS011;10584;50.854;12.902;2023-02-02T19:52:51;11.33;;;3.83;;
20846;SDS011;10584;50.854;12.902;2023-02-02T20:03:42;9.40;;;3.90;;
20846;SDS011;10584;50.854;12.902;2023-02-02T20:09:09;9.03;;;3.37;;
20846;SDS011;10584;50.854;12.902;2023-02-02T20:14:37;12.00;;;4.30;;
20846;SDS011;10584;50.854;12.902;2023-02-02T20:19:58;12.23;;;4.57;;
20846;SDS011;10584;50.854;12.902;2023-02-02T20:25:20;16.90;;;6.60;;
20846;SDS011;10584;50.854;12.902;2023-02-02T20:30:42;9.57;;;3.83;;
20846;SDS011;10584;50.854;12.902;2023-02-02T20:36:14;12.17;;;4.53;;
20846;SDS011;10584;50.854;12.902;2023-02-02T20:41:48;20.87;;;5.73;;
20846;SDS011;10584;50.854;12.902;2023-02-02T20:47:09;18.33;;;5.30;;
20846;SDS011;10584;50.854;12.902;2023-02-02T20:52:31;16.53;;;5.17;;
20846;SDS011;10584;50.854;12.902;2023-02-02T20:57:53;17.73;;;6.20;;
20846;SDS011;10584;50.854;12.902;2023-02-02T21:03:15;15.00;;;4.90;;
20846;SDS011;10584;50.854;12.902;2023-02-02T21:08:36;12.43;;;5.07;;
20846;SDS011;10584;50.854;12.902;2023-02-02T21:13:58;9.83;;;4.77;;
20846;SDS011;10584;50.854;12.902;2023-02-02T21:19:20;16.20;;;4.27;;
20846;SDS011;10584;50.854;12.902;2023-02-02T21:24:42;11.80;;;4.60;;
20846;SDS011;10584;50.854;12.902;2023-02-02T21:30:03;13.27;;;4.23;;
20846;SDS011;10584;50.854;12.902;2023-02-02T21:35:25;7.40;;;3.77;;
20846;SDS011;10584;50.854;12.902;2023-02-02T21:40:47;7.00;;;3.50;;
20846;SDS011;10584;50.854;12.902;2023-02-02T21:46:16;11.80;;;4.13;;
20846;SDS011;10584;50.854;12.902;2023-02-02T21:51:41;10.83;;;4.60;;
20846;SDS011;10584;50.854;12.902;2023-02-02T21:57:10;9.90;;;3.60;;
20846;SDS011;10584;50.854;12.902;2023-02-02T22:02:40;8.67;;;3.67;;
20846;SDS011;10584;50.854;12.902;2023-02-02T22:08:26;9.43;;;3.67;;
20846;SDS011;10584;50.854;12.902;2023-02-02T22:13:48;9.10;;;3.43;;
20846;SDS011;10584;50.854;12.902;2023-02-02T22:19:23;13.40;;;3.73;;
20846;SDS011;10584;50.854;12.902;2023-02-02T22:25:25;13.27;;;3.27;;
20846;SDS011;10584;50.854;12.902;2023-02-02T22:30:51;9.33;;;3.40;;
20846;SDS011;10584;50.854;12.902;2023-02-02T22:36:14;11.27;;;3.60;;
20846;SDS011;10584;50.854;12.902;2023-02-02T22:41:35;7.13;;;2.50;;
20846;SDS011;10584;50.854;12.902;2023-02-02T22:46:57;11.87;;;3.30;;
20846;SDS011;10584;50.854;12.902;2023-02-02T22:52:18;8.90;;;2.63;;
20846;SDS011;10584;50.854;12.902;2023-02-02T22:57:40;12.67;;;2.80;;
20846;SDS011;10584;50.854;12.902;2023-02-02T23:03:02;8.80;;;2.80;;
20846;SDS011;10584;50.854;12.902;2023-02-02T23:08:23;8.77;;;2.93;;
20846;SDS011;10584;50.854;12.902;2023-02-02T23:13:45;10.07;;;3.10;;
20846;SDS011;10584;50.854;12.902;2023-02-02T23:19:06;7.43;;;2.50;;
20846;SDS011;10584;50.854;12.902;2023-02-02T23:24:28;5.13;;;2.37;;
20846;SDS011;10584;50.854;12.902;2023-02-02T23:29:49;6.30;;;2.47;;
20846;SDS011;10584;50.854;12.902;2023-02-02T23:35:10;12.27;;;3.33;;
20846;SDS011;10584;50.854;12.902;2023-02-02T23:40:32;8.47;;;2.90;;
20846;SDS011;10584;50.854;12.902;2023-02-02T23:45:53;6.70;;;2.67;;
20846;SDS011;10584;50.854;12.902;2023-02-02T23:51:15;7.07;;;2.80;;
20846;SDS011;10584;50.854;12.902;2023-02-02T23:56:36;7.30;;;2.97;;
